createdAt,value
2017-08-31T00:02:12.445Z,27.98
2017-08-31T00:04:40.598Z,29.15
2017-08-31T00:07:08.798Z,27.50
2017-08-31T00:09:36.951Z,26.90
2017-08-31T00:12:05.102Z,27.30
2017-08-31T00:14:33.282Z,26.00
2017-08-31T00:17:01.435Z,27.77
2017-08-31T00:19:29.590Z,25.77
2017-08-31T00:21:57.785Z,27.75
2017-08-31T00:24:25.953Z,29.00
2017-08-31T00:26:54.128Z,28.00
2017-08-31T00:29:22.317Z,30.37
2017-08-31T00:31:50.514Z,30.50
2017-08-31T00:34:18.735Z,30.48
2017-08-31T00:36:46.905Z,33.00
2017-08-31T00:39:15.094Z,34.08
2017-08-31T00:41:43.265Z,37.05
2017-08-31T00:44:11.470Z,37.22
2017-08-31T00:46:39.647Z,38.17
2017-08-31T00:49:07.820Z,39.33
2017-08-31T00:51:36.003Z,42.42
2017-08-31T00:54:04.173Z,43.20
2017-08-31T00:56:32.344Z,44.85
2017-08-31T00:59:00.519Z,47.17
2017-08-31T01:01:28.689Z,47.53
2017-08-31T01:03:56.862Z,54.03
2017-08-31T01:06:25.056Z,57.03
2017-08-31T01:08:53.225Z,54.78
2017-08-31T01:11:21.394Z,57.00
2017-08-31T01:13:49.576Z,56.03
2017-08-31T01:16:17.744Z,59.22
2017-08-31T01:18:45.946Z,61.90
2017-08-31T01:21:14.099Z,61.60
2017-08-31T01:23:42.271Z,61.20
2017-08-31T01:26:10.459Z,62.75
2017-08-31T01:28:38.614Z,65.72
2017-08-31T01:31:06.788Z,65.32
2017-08-31T01:33:34.970Z,65.35
2017-08-31T01:36:03.148Z,66.15
2017-08-31T01:38:31.317Z,64.55
2017-08-31T01:40:59.515Z,66.90
2017-08-31T01:43:27.690Z,65.80
2017-08-31T01:45:55.858Z,65.80
2017-08-31T01:48:24.061Z,65.78
2017-08-31T01:50:52.215Z,67.07
2017-08-31T01:53:20.366Z,67.22
2017-08-31T01:55:48.560Z,70.22
2017-08-31T01:58:16.726Z,69.62
2017-08-31T02:00:44.878Z,70.07
2017-08-31T02:03:13.055Z,68.78
2017-08-31T02:05:41.224Z,68.20
2017-08-31T02:08:09.396Z,70.47
2017-08-31T02:10:37.575Z,68.45
2017-08-31T02:13:05.722Z,71.10
2017-08-31T02:15:33.876Z,69.12
2017-08-31T02:18:02.054Z,70.28
2017-08-31T02:20:30.202Z,65.65
2017-08-31T02:22:58.347Z,70.68
2017-08-31T02:25:26.534Z,68.87
2017-08-31T02:27:54.686Z,67.87
2017-08-31T02:30:22.839Z,71.50
2017-08-31T02:32:51.040Z,71.70
2017-08-31T02:35:19.212Z,72.60
2017-08-31T02:37:48.126Z,72.43
2017-08-31T02:40:16.307Z,73.45
2017-08-31T02:42:44.483Z,78.95
2017-08-31T02:45:12.643Z,79.93
2017-08-31T02:47:40.821Z,79.62
2017-08-31T02:50:09.000Z,79.10
2017-08-31T02:52:37.159Z,76.40
2017-08-31T02:55:05.363Z,77.28
2017-08-31T02:57:33.518Z,78.68
2017-08-31T03:00:01.673Z,78.72
2017-08-31T03:02:29.859Z,72.50
2017-08-31T03:04:58.034Z,70.40
2017-08-31T03:07:26.186Z,68.37
2017-08-31T03:09:55.562Z,69.10
2017-08-31T03:12:23.728Z,69.70
2017-08-31T03:14:51.888Z,69.25
2017-08-31T03:17:20.088Z,70.97
2017-08-31T03:19:48.260Z,69.05
2017-08-31T03:22:16.419Z,66.78
2017-08-31T03:24:44.604Z,66.75
2017-08-31T03:27:12.758Z,63.92
2017-08-31T03:29:40.906Z,65.97
2017-08-31T03:32:09.113Z,64.07
2017-08-31T03:34:37.289Z,62.03
2017-08-31T03:37:05.441Z,61.53
2017-08-31T03:39:33.644Z,63.60
2017-08-31T03:42:01.802Z,64.82
2017-08-31T03:44:29.953Z,65.57
2017-08-31T03:46:58.135Z,58.42
2017-08-31T03:49:26.294Z,63.30
2017-08-31T03:51:54.452Z,62.58
2017-08-31T03:54:23.470Z,58.83
2017-08-31T03:56:51.627Z,59.42
2017-08-31T03:59:19.781Z,51.88
2017-08-31T04:01:47.977Z,55.08
2017-08-31T04:04:16.136Z,55.80
2017-08-31T04:06:44.306Z,54.30
2017-08-31T04:09:12.487Z,55.00
2017-08-31T04:11:40.657Z,53.87
2017-08-31T04:14:08.830Z,53.20
2017-08-31T04:16:37.019Z,50.63
2017-08-31T04:19:05.189Z,48.65
2017-08-31T04:21:33.353Z,49.88
2017-08-31T04:24:01.549Z,48.15
2017-08-31T04:26:30.472Z,48.78
2017-08-31T04:28:58.632Z,46.83
2017-08-31T04:31:26.814Z,44.00
2017-08-31T04:33:54.957Z,42.35
2017-08-31T04:36:23.129Z,46.13
2017-08-31T04:38:51.322Z,42.15
2017-08-31T04:41:20.254Z,41.55
2017-08-31T04:43:48.422Z,43.55
2017-08-31T04:46:16.617Z,38.50
2017-08-31T04:48:44.771Z,35.42
2017-08-31T04:51:12.927Z,37.03
2017-08-31T04:53:41.122Z,37.03
2017-08-31T04:56:09.296Z,36.47
2017-08-31T04:58:37.461Z,34.33
2017-08-31T05:01:05.645Z,34.92
2017-08-31T05:03:33.794Z,33.35
2017-08-31T05:06:01.965Z,34.33
2017-08-31T05:08:30.158Z,33.05
2017-08-31T05:10:58.331Z,32.25
2017-08-31T05:13:26.516Z,31.98
2017-08-31T05:15:54.715Z,29.85
2017-08-31T05:18:22.869Z,31.10
2017-08-31T05:20:51.025Z,29.60
2017-08-31T05:23:19.225Z,28.77
2017-08-31T05:25:47.400Z,28.42
2017-08-31T05:28:15.569Z,26.23
2017-08-31T05:30:43.765Z,26.17
2017-08-31T05:33:11.915Z,24.67
2017-08-31T05:35:40.085Z,24.35
2017-08-31T05:38:08.283Z,22.30
2017-08-31T05:40:36.435Z,22.42
2017-08-31T05:43:04.583Z,22.45
2017-08-31T05:45:32.765Z,25.20
2017-08-31T05:48:00.918Z,22.08
2017-08-31T05:50:29.071Z,19.60
2017-08-31T05:52:57.305Z,18.25
2017-08-31T05:55:25.471Z,16.25
2017-08-31T05:57:53.644Z,15.98
2017-08-31T06:00:21.824Z,15.43
2017-08-31T06:02:50.020Z,14.73
2017-08-31T06:05:18.192Z,12.25
2017-08-31T06:07:46.390Z,17.67
2017-08-31T06:10:14.562Z,14.00
2017-08-31T06:12:42.714Z,14.25
2017-08-31T06:15:10.912Z,13.50
2017-08-31T06:17:39.069Z,14.02
2017-08-31T06:20:07.248Z,13.30
2017-08-31T06:22:35.453Z,13.82
2017-08-31T06:25:03.613Z,13.80
2017-08-31T06:27:31.785Z,14.35
2017-08-31T06:29:59.962Z,13.90
2017-08-31T06:32:28.129Z,11.23
2017-08-31T06:34:56.282Z,10.25
2017-08-31T06:37:24.467Z,9.93
2017-08-31T06:39:52.622Z,11.38
2017-08-31T06:42:20.794Z,10.00
2017-08-31T06:44:48.968Z,8.00
2017-08-31T06:47:17.148Z,9.10
2017-08-31T06:49:45.320Z,8.05
2017-08-31T06:52:13.528Z,7.55
2017-08-31T06:54:41.697Z,7.60
2017-08-31T06:57:09.861Z,7.12
2017-08-31T06:59:38.045Z,7.55
2017-08-31T07:02:06.215Z,9.70
2017-08-31T07:04:34.384Z,6.50
2017-08-31T07:07:02.575Z,7.30
2017-08-31T07:09:30.744Z,7.62
2017-08-31T07:11:58.911Z,7.62
2017-08-31T07:14:27.109Z,8.00
2017-08-31T07:16:55.275Z,8.57
2017-08-31T07:19:23.423Z,9.00
2017-08-31T07:21:51.620Z,10.48
2017-08-31T07:24:19.795Z,10.25
2017-08-31T07:26:47.941Z,9.57
2017-08-31T07:29:16.138Z,8.43
2017-08-31T07:31:44.300Z,8.15
2017-08-31T07:34:12.476Z,9.38
2017-08-31T07:36:40.650Z,8.95
2017-08-31T07:39:08.809Z,7.75
2017-08-31T07:41:36.954Z,7.00
2017-08-31T07:44:05.159Z,6.55
2017-08-31T07:46:33.314Z,6.45
2017-08-31T07:49:01.464Z,6.50
2017-08-31T07:51:30.406Z,6.80
2017-08-31T07:53:58.576Z,6.07
2017-08-31T07:56:26.729Z,8.63
2017-08-31T07:58:55.256Z,10.75
2017-08-31T08:01:23.425Z,10.23
2017-08-31T08:03:51.600Z,12.35
2017-08-31T08:06:19.790Z,12.13
2017-08-31T08:08:48.755Z,11.40
2017-08-31T08:11:16.908Z,9.75
2017-08-31T08:13:45.412Z,9.20
2017-08-31T08:16:13.560Z,8.60
2017-08-31T08:18:41.725Z,7.07
2017-08-31T08:21:09.909Z,7.28
2017-08-31T08:23:38.054Z,6.20
2017-08-31T08:26:06.207Z,6.20
2017-08-31T08:28:34.402Z,4.65
2017-08-31T08:31:02.564Z,7.60
2017-08-31T08:33:30.706Z,4.30
2017-08-31T08:35:58.906Z,3.47
2017-08-31T08:38:27.054Z,4.45
2017-08-31T08:40:55.217Z,3.33
2017-08-31T08:43:23.408Z,3.78
2017-08-31T08:45:51.549Z,2.78
2017-08-31T08:48:19.698Z,3.60
2017-08-31T08:50:48.662Z,2.90
2017-08-31T08:53:16.809Z,3.37
2017-08-31T08:55:44.963Z,3.10
2017-08-31T08:58:13.157Z,2.33
2017-08-31T09:00:41.320Z,2.70
2017-08-31T09:03:09.481Z,5.05
2017-08-31T09:05:37.672Z,2.97
2017-08-31T09:08:05.814Z,2.85
2017-08-31T09:10:33.969Z,4.00
2017-08-31T09:13:02.147Z,2.45
2017-08-31T09:15:30.298Z,2.60
2017-08-31T09:17:58.462Z,2.62
2017-08-31T09:20:26.638Z,3.25
2017-08-31T09:22:54.804Z,3.00
2017-08-31T09:25:22.951Z,2.70
2017-08-31T09:27:51.163Z,3.15
2017-08-31T09:30:19.336Z,4.43
2017-08-31T09:32:47.478Z,2.40
2017-08-31T09:35:15.664Z,3.00
2017-08-31T09:37:43.824Z,2.92
2017-08-31T09:40:11.989Z,2.85
2017-08-31T09:42:40.158Z,3.40
2017-08-31T09:45:08.307Z,2.65
2017-08-31T09:47:36.456Z,3.28
2017-08-31T09:50:04.630Z,2.78
2017-08-31T09:52:32.775Z,3.20
2017-08-31T09:55:00.942Z,3.97
2017-08-31T09:57:29.118Z,2.50
2017-08-31T09:59:57.284Z,3.00
2017-08-31T10:02:25.430Z,4.97
2017-08-31T10:04:53.601Z,2.42
2017-08-31T10:07:21.764Z,2.20
2017-08-31T10:09:49.907Z,2.35
2017-08-31T10:12:18.086Z,2.92
2017-08-31T10:14:46.251Z,2.28
2017-08-31T10:17:14.397Z,3.70
2017-08-31T10:19:43.351Z,2.40
2017-08-31T10:22:11.494Z,3.45
2017-08-31T10:24:39.638Z,2.47
2017-08-31T10:27:07.818Z,3.55
2017-08-31T10:29:36.730Z,3.30
2017-08-31T10:32:04.874Z,2.75
2017-08-31T10:34:33.055Z,3.05
2017-08-31T10:37:01.203Z,3.85
2017-08-31T10:39:29.365Z,6.40
2017-08-31T10:41:57.542Z,5.22
2017-08-31T10:44:25.688Z,3.08
2017-08-31T10:46:53.869Z,4.30
2017-08-31T10:49:22.069Z,5.15
2017-08-31T10:51:50.225Z,6.22
2017-08-31T10:54:18.375Z,2.40
2017-08-31T10:56:46.572Z,3.75
2017-08-31T10:59:14.719Z,3.28
2017-08-31T11:01:42.890Z,3.78
2017-08-31T11:04:11.085Z,3.35
2017-08-31T11:06:39.236Z,3.50
2017-08-31T11:09:07.402Z,4.05
2017-08-31T11:11:35.591Z,3.00
2017-08-31T11:14:03.750Z,4.05
2017-08-31T11:16:31.922Z,3.50
2017-08-31T11:19:00.126Z,4.37
2017-08-31T11:21:28.281Z,4.20
2017-08-31T11:23:56.448Z,3.70
2017-08-31T11:26:24.615Z,2.60
2017-08-31T11:28:52.907Z,4.20
2017-08-31T11:31:21.074Z,4.07
2017-08-31T11:33:49.228Z,5.05
2017-08-31T11:36:17.466Z,3.60
2017-08-31T11:38:45.530Z,2.97
2017-08-31T11:41:13.722Z,3.20
2017-08-31T11:43:41.886Z,2.75
2017-08-31T11:46:10.050Z,2.90
2017-08-31T11:48:38.257Z,3.80
2017-08-31T11:51:06.412Z,3.92
2017-08-31T11:53:34.559Z,3.17
2017-08-31T11:56:02.738Z,4.30
2017-08-31T11:58:30.884Z,4.18
2017-08-31T12:00:59.049Z,3.10
2017-08-31T12:03:27.241Z,3.78
2017-08-31T12:05:55.387Z,4.10
2017-08-31T12:08:23.556Z,4.20
2017-08-31T12:10:51.728Z,4.70
2017-08-31T12:13:19.906Z,4.30
2017-08-31T12:15:48.054Z,4.70
2017-08-31T12:18:16.260Z,4.32
2017-08-31T12:20:44.421Z,5.15
2017-08-31T12:23:12.580Z,4.62
2017-08-31T12:25:40.777Z,3.90
2017-08-31T12:28:08.947Z,4.80
2017-08-31T12:30:37.086Z,4.68
2017-08-31T12:33:05.266Z,4.50
2017-08-31T12:35:33.420Z,4.43
2017-08-31T12:38:02.348Z,5.50
2017-08-31T12:40:30.841Z,4.80
2017-08-31T12:42:59.005Z,4.87
2017-08-31T12:45:27.150Z,5.70
2017-08-31T12:47:55.341Z,4.90
2017-08-31T12:50:23.487Z,5.00
2017-08-31T12:52:51.653Z,5.10
2017-08-31T12:55:19.828Z,5.15
2017-08-31T12:57:48.014Z,5.20
2017-08-31T13:00:16.180Z,4.90
2017-08-31T13:02:44.919Z,4.62
2017-08-31T13:08:12.001Z,4.55
2017-08-31T13:10:40.160Z,6.10
2017-08-31T13:13:08.330Z,5.50
2017-08-31T13:15:36.534Z,13.02
2017-08-31T13:18:04.696Z,8.85
2017-08-31T13:20:32.864Z,9.90
2017-08-31T13:23:01.042Z,10.57
2017-08-31T13:25:29.212Z,10.70
2017-08-31T13:27:57.350Z,6.62
2017-08-31T13:30:25.541Z,7.35
2017-08-31T13:32:53.705Z,6.53
2017-08-31T13:35:21.879Z,6.05
2017-08-31T13:37:50.049Z,5.93
2017-08-31T13:40:18.957Z,5.55
2017-08-31T13:42:47.102Z,5.55
2017-08-31T13:45:16.052Z,5.50
2017-08-31T13:47:44.194Z,5.72
2017-08-31T13:50:12.349Z,5.40
2017-08-31T13:52:40.523Z,4.95
2017-08-31T13:55:08.668Z,5.30
2017-08-31T13:57:36.818Z,4.35
2017-08-31T14:00:04.992Z,3.80
2017-08-31T14:02:33.134Z,4.30
2017-08-31T14:05:01.300Z,4.00
2017-08-31T14:07:29.474Z,4.53
2017-08-31T14:09:57.640Z,4.75
2017-08-31T14:12:25.784Z,5.00
2017-08-31T14:14:53.984Z,4.90
2017-08-31T14:17:22.135Z,4.82
2017-08-31T14:19:50.286Z,4.12
2017-08-31T14:22:18.472Z,4.40
2017-08-31T14:24:46.623Z,4.40
2017-08-31T14:27:14.771Z,4.55
2017-08-31T14:29:42.938Z,3.97
2017-08-31T14:32:11.088Z,4.65
2017-08-31T14:34:39.255Z,4.50
2017-08-31T14:37:07.444Z,4.50
2017-08-31T14:39:35.592Z,5.60
2017-08-31T14:42:03.765Z,5.90
2017-08-31T14:44:31.931Z,6.00
2017-08-31T14:47:00.094Z,5.80
2017-08-31T14:49:28.260Z,4.72
2017-08-31T14:51:56.431Z,4.30
2017-08-31T14:54:24.574Z,4.87
2017-08-31T14:56:52.741Z,4.32
2017-08-31T14:59:20.913Z,3.70
2017-08-31T15:01:49.844Z,4.10
2017-08-31T15:04:18.020Z,3.53
2017-08-31T15:06:46.213Z,4.22
2017-08-31T15:09:14.378Z,3.85
2017-08-31T15:11:42.525Z,3.95
2017-08-31T15:14:10.703Z,3.42
2017-08-31T15:16:38.845Z,3.60
2017-08-31T15:19:07.012Z,2.90
2017-08-31T15:21:35.208Z,3.30
2017-08-31T15:24:03.363Z,3.20
2017-08-31T15:26:31.524Z,3.00
2017-08-31T15:28:59.700Z,2.83
2017-08-31T15:31:27.873Z,3.40
2017-08-31T15:33:56.075Z,2.60
2017-08-31T15:36:24.286Z,3.17
2017-08-31T15:38:52.448Z,2.72
2017-08-31T15:41:20.590Z,2.47
2017-08-31T15:43:48.771Z,3.00
2017-08-31T15:46:16.933Z,2.78
2017-08-31T15:48:45.083Z,3.00
2017-08-31T15:51:13.269Z,2.90
2017-08-31T15:53:41.464Z,2.80
2017-08-31T15:56:09.614Z,3.72
2017-08-31T15:58:37.783Z,2.40
2017-08-31T16:01:05.931Z,2.55
2017-08-31T16:03:34.093Z,2.15
2017-08-31T16:06:02.283Z,3.45
2017-08-31T16:08:30.445Z,1.95
2017-08-31T16:10:58.604Z,3.15
2017-08-31T16:13:26.778Z,4.45
2017-08-31T16:15:54.945Z,2.15
2017-08-31T16:18:23.104Z,4.82
2017-08-31T16:20:51.276Z,2.50
2017-08-31T16:23:19.420Z,2.97
2017-08-31T16:25:47.591Z,1.20
2017-08-31T16:28:15.785Z,2.30
2017-08-31T16:30:43.949Z,1.92
2017-08-31T16:33:12.120Z,1.70
2017-08-31T16:35:40.314Z,1.95
2017-08-31T16:38:08.476Z,1.30
2017-08-31T16:40:36.638Z,1.50
2017-08-31T16:43:04.829Z,1.60
2017-08-31T16:45:32.988Z,2.20
2017-08-31T16:48:01.149Z,1.65
2017-08-31T16:50:29.324Z,4.70
2017-08-31T16:52:57.481Z,2.80
2017-08-31T16:55:25.628Z,2.30
2017-08-31T16:57:54.588Z,2.15
2017-08-31T17:00:22.738Z,3.55
2017-08-31T17:02:50.901Z,2.05
2017-08-31T17:05:19.078Z,1.83
2017-08-31T17:07:47.221Z,2.62
2017-08-31T17:10:15.385Z,2.28
2017-08-31T17:12:43.562Z,4.85
2017-08-31T17:15:11.703Z,5.10
2017-08-31T17:17:39.846Z,3.20
2017-08-31T17:20:08.036Z,2.65
2017-08-31T17:22:36.192Z,2.92
2017-08-31T17:25:04.336Z,3.20
2017-08-31T17:27:32.510Z,2.22
2017-08-31T17:30:00.753Z,2.80
2017-08-31T17:32:28.949Z,2.47
2017-08-31T17:34:57.130Z,2.20
2017-08-31T17:37:25.276Z,3.92
2017-08-31T17:39:53.440Z,4.40
2017-08-31T17:42:21.636Z,2.00
2017-08-31T17:44:49.800Z,2.90
2017-08-31T17:47:17.948Z,3.95
2017-08-31T17:49:46.121Z,4.12
2017-08-31T17:52:14.280Z,2.05
2017-08-31T17:54:42.445Z,1.85
2017-08-31T17:57:10.633Z,2.20
2017-08-31T17:59:38.778Z,1.80
2017-08-31T18:02:06.941Z,1.92
2017-08-31T18:04:35.132Z,2.55
2017-08-31T18:07:03.277Z,4.12
2017-08-31T18:09:31.427Z,4.40
2017-08-31T18:11:59.598Z,4.15
2017-08-31T18:14:27.761Z,3.28
2017-08-31T18:16:55.942Z,5.82
2017-08-31T18:19:24.121Z,2.80
2017-08-31T18:21:52.263Z,2.25
2017-08-31T18:24:20.413Z,2.40
2017-08-31T18:26:48.605Z,4.10
2017-08-31T18:29:16.746Z,5.78
2017-08-31T18:31:44.913Z,5.87
2017-08-31T18:34:13.089Z,3.35
2017-08-31T18:36:41.229Z,2.50
2017-08-31T18:39:09.370Z,3.10
2017-08-31T18:41:37.549Z,3.47
2017-08-31T18:44:05.789Z,3.85
2017-08-31T18:46:33.947Z,2.92
2017-08-31T18:49:02.136Z,2.53
2017-08-31T18:51:30.281Z,2.80
2017-08-31T18:53:58.423Z,3.75
2017-08-31T18:56:26.599Z,3.55
2017-08-31T18:58:54.746Z,3.70
2017-08-31T19:01:22.913Z,3.10
2017-08-31T19:03:51.082Z,3.30
2017-08-31T19:06:19.245Z,3.22
2017-08-31T19:08:47.406Z,3.15
2017-08-31T19:11:15.593Z,3.05
2017-08-31T19:13:43.734Z,3.40
2017-08-31T19:16:11.889Z,4.10
2017-08-31T19:18:40.851Z,3.40
2017-08-31T19:21:09.013Z,4.40
2017-08-31T19:23:37.154Z,2.87
2017-08-31T19:26:05.353Z,3.25
2017-08-31T19:28:33.516Z,3.10
2017-08-31T19:31:01.658Z,3.28
2017-08-31T19:33:29.829Z,3.65
2017-08-31T19:35:57.974Z,3.50
2017-08-31T19:38:26.117Z,2.83
2017-08-31T19:40:54.286Z,3.42
2017-08-31T19:43:22.449Z,3.15
2017-08-31T19:45:50.595Z,3.22
2017-08-31T19:48:18.770Z,3.40
2017-08-31T19:50:46.941Z,3.10
2017-08-31T19:53:15.104Z,2.80
2017-08-31T19:55:43.278Z,3.30
2017-08-31T19:58:11.425Z,3.22
2017-08-31T20:00:39.570Z,3.62
2017-08-31T20:03:07.754Z,3.40
2017-08-31T20:05:36.161Z,3.50
2017-08-31T20:08:04.322Z,3.62
2017-08-31T20:10:32.513Z,3.40
2017-08-31T20:13:00.657Z,3.22
2017-08-31T20:15:28.802Z,4.00
2017-08-31T20:17:56.995Z,3.70
2017-08-31T20:20:25.161Z,3.90
2017-08-31T20:22:53.329Z,3.83
2017-08-31T20:25:22.285Z,2.87
2017-08-31T20:27:50.434Z,3.67
2017-08-31T20:30:18.600Z,3.70
2017-08-31T20:32:46.789Z,4.57
2017-08-31T20:35:14.960Z,4.10
2017-08-31T20:37:43.120Z,3.60
2017-08-31T20:40:11.291Z,3.30
2017-08-31T20:42:39.436Z,3.70
2017-08-31T20:45:08.351Z,3.42
2017-08-31T20:47:36.525Z,3.40
2017-08-31T20:50:04.676Z,3.62
2017-08-31T20:52:32.822Z,4.10
2017-08-31T20:55:01.012Z,3.55
2017-08-31T20:57:29.172Z,3.10
2017-08-31T20:59:57.336Z,3.70
2017-08-31T21:02:25.522Z,3.40
2017-08-31T21:04:53.670Z,3.37
2017-08-31T21:07:21.832Z,3.83
2017-08-31T21:09:49.997Z,3.78
2017-08-31T21:12:18.141Z,3.60
2017-08-31T21:14:46.307Z,3.65
2017-08-31T21:17:14.479Z,4.18
2017-08-31T21:19:42.633Z,3.15
2017-08-31T21:22:10.778Z,3.45
2017-08-31T21:24:39.839Z,4.03
2017-08-31T21:27:08.767Z,3.30
2017-08-31T21:29:36.940Z,3.85
2017-08-31T21:32:05.134Z,4.12
2017-08-31T21:37:00.978Z,4.50
2017-08-31T21:39:29.164Z,3.70
2017-08-31T21:41:57.301Z,3.40
2017-08-31T21:44:25.445Z,3.72
2017-08-31T21:46:53.637Z,4.60
2017-08-31T21:49:21.803Z,4.20
2017-08-31T21:51:50.728Z,3.78
2017-08-31T21:54:18.926Z,4.15
2017-08-31T21:56:47.092Z,4.22
2017-08-31T21:59:15.253Z,3.30
2017-08-31T22:01:43.418Z,3.40
2017-08-31T22:04:11.599Z,3.65
2017-08-31T22:06:39.742Z,3.70
2017-08-31T22:09:07.944Z,3.70
2017-08-31T22:11:36.107Z,3.47
2017-08-31T22:14:04.271Z,3.37
2017-08-31T22:16:32.460Z,3.40
2017-08-31T22:19:00.621Z,4.60
2017-08-31T22:21:28.762Z,3.30
2017-08-31T22:23:56.952Z,3.92
2017-08-31T22:26:25.120Z,3.85
2017-08-31T22:28:54.043Z,4.35
2017-08-31T22:31:22.229Z,3.30
2017-08-31T22:33:50.384Z,3.30
2017-08-31T22:36:18.527Z,3.00
2017-08-31T22:38:46.726Z,4.07
2017-08-31T22:41:14.874Z,3.97
2017-08-31T22:43:43.022Z,3.40
2017-08-31T22:46:11.198Z,3.30
2017-08-31T22:48:39.366Z,3.28
2017-08-31T22:51:07.512Z,3.95
2017-08-31T22:53:35.679Z,4.28
2017-08-31T22:56:03.831Z,4.30
2017-08-31T22:58:43.833Z,2.90
2017-08-31T23:01:11.995Z,3.30
2017-08-31T23:03:40.983Z,3.97
2017-08-31T23:06:09.177Z,3.45
2017-08-31T23:08:37.347Z,4.82
2017-08-31T23:11:05.509Z,3.60
2017-08-31T23:13:33.681Z,4.20
2017-08-31T23:16:01.844Z,3.65
2017-08-31T23:18:29.995Z,4.18
2017-08-31T23:20:58.212Z,3.45
2017-08-31T23:23:26.356Z,3.95
2017-08-31T23:25:54.511Z,4.45
2017-08-31T23:28:22.701Z,4.30
2017-08-31T23:30:50.871Z,4.05
2017-08-31T23:33:19.805Z,3.25
2017-08-31T23:35:48.008Z,3.72
2017-08-31T23:38:16.171Z,3.55
2017-08-31T23:40:44.317Z,3.47
2017-08-31T23:43:12.510Z,4.00
2017-08-31T23:45:40.655Z,3.70
2017-08-31T23:48:10.896Z,4.03
2017-08-31T23:50:39.089Z,4.15
2017-08-31T23:53:07.257Z,4.35
2017-08-31T23:55:35.441Z,3.70
2017-08-31T23:58:03.696Z,3.40
